Time;durP1;ratioP1;P1;durP2;ratioP2;P2;SDS_P1;SDS_P2;PMS_P1;PMS_P2;Temp;Humidity;BMP_temperature;BMP_pressure;BME280_temperature;BME280_humidity;BME280_pressure;Samples;Min_cycle;Max_cycle;Signal;HPM_P1;HPM_P2
2021/10/02 00:31:46;;;;;;;0.63;0.55;;;;;;;13.02;99.42;101009.56;6297582;28;20469;-78
2021/10/02 00:35:10;;;;;;;0.50;0.40;;;;;;;13.02;99.47;101006.06;6297166;28;20067;-79
2021/10/02 00:41:55;;;;;;;1.52;0.90;;;;;;;12.99;100.00;101004.50;6296693;28;20045;-77
2021/10/02 00:44:55;;;;;;;1.00;0.52;;;;;;;12.98;100.00;101001.91;6296530;28;20055;-77
2021/10/02 00:47:57;;;;;;;2.95;0.75;;;;;;;12.95;100.00;101006.44;6296649;28;20052;-77
2021/10/02 00:51:00;;;;;;;0.70;0.45;;;;;;;12.95;100.00;100995.91;6296539;28;20458;-76
2021/10/02 00:54:01;;;;;;;0.70;0.50;;;;;;;12.95;100.00;100998.53;6295929;28;20056;-77
2021/10/02 00:57:05;;;;;;;1.42;0.50;;;;;;;12.92;100.00;100998.72;6296987;28;20495;-78
2021/10/02 01:00:09;;;;;;;2.15;0.85;;;;;;;12.85;100.00;101000.03;6296480;28;20048;-77
2021/10/02 01:03:20;;;;;;;0.98;0.50;;;;;;;12.86;100.00;100998.22;6296775;28;20089;-78
2021/10/02 01:06:48;;;;;;;5.15;0.70;;;;;;;12.73;100.00;101005.16;6296811;28;20491;-78
2021/10/02 01:10:07;;;;;;;2.83;0.68;;;;;;;12.63;100.00;101008.34;6287603;28;20053;-78
2021/10/02 01:13:20;;;;;;;1.38;0.68;;;;;;;12.60;100.00;100997.94;6301475;28;20080;-76
2021/10/02 01:16:29;;;;;;;0.65;0.50;;;;;;;12.60;100.00;101005.88;6301053;28;20048;-77
2021/10/02 01:19:43;;;;;;;2.45;0.77;;;;;;;12.55;100.00;100994.75;6301396;28;20056;-77
2021/10/02 01:23:03;;;;;;;1.77;1.13;;;;;;;12.55;100.00;100994.75;6301091;28;20669;-78
2021/10/02 01:26:26;;;;;;;1.92;1.00;;;;;;;12.56;100.00;100988.53;6299408;28;20059;-77
2021/10/02 01:29:34;;;;;;;1.27;0.50;;;;;;;12.58;100.00;100980.50;6298845;28;20048;-77
2021/10/02 01:32:47;;;;;;;2.30;1.05;;;;;;;12.59;100.00;100974.31;6300389;28;20048;-78
2021/10/02 01:35:54;;;;;;;2.15;0.88;;;;;;;12.62;100.00;100988.16;6300455;28;20075;-77
2021/10/02 01:49:01;;;;;;;0.98;0.70;;;;;;;12.67;100.00;100988.75;6290172;22;20496;-80
2021/10/02 01:52:03;;;;;;;1.20;0.85;;;;;;;12.66;100.00;100992.31;6275316;28;20519;-79
2021/10/02 01:55:07;;;;;;;1.23;1.08;;;;;;;12.66;100.00;100983.56;6274862;28;20045;-79
2021/10/02 01:58:11;;;;;;;1.80;0.90;;;;;;;12.67;100.00;100982.59;6250327;28;20053;-78
2021/10/02 02:01:14;;;;;;;1.13;0.88;;;;;;;12.64;100.00;100988.09;6249856;28;20052;-79
2021/10/02 02:04:16;;;;;;;1.17;0.80;;;;;;;12.62;100.00;100985.50;6250020;28;20056;-80
2021/10/02 02:07:21;;;;;;;3.72;0.90;;;;;;;12.63;100.00;100986.41;6255328;28;20401;-80
2021/10/02 02:10:24;;;;;;;1.25;1.02;;;;;;;12.63;100.00;100983.75;6274832;28;20051;-79
2021/10/02 02:13:27;;;;;;;3.33;0.75;;;;;;;12.63;100.00;100984.59;6274370;28;20049;-80
2021/10/02 02:16:31;;;;;;;2.88;1.00;;;;;;;12.57;100.00;100978.81;6274503;28;20492;-79
2021/10/02 02:19:35;;;;;;;1.30;0.75;;;;;;;12.55;100.00;100981.56;6274449;28;20056;-78
2021/10/02 02:22:36;;;;;;;1.40;0.88;;;;;;;12.54;100.00;100974.59;6274067;28;20052;-80
2021/10/02 02:25:39;;;;;;;4.75;1.65;;;;;;;12.52;100.00;100968.53;6274190;28;20056;-79
2021/10/02 02:28:41;;;;;;;1.17;0.73;;;;;;;12.49;100.00;100971.38;6273947;28;20056;-80
2021/10/02 02:31:44;;;;;;;1.50;0.98;;;;;;;12.49;100.00;100981.91;6274211;28;20045;-80
2021/10/02 02:34:46;;;;;;;1.10;0.80;;;;;;;12.47;100.00;100969.75;6273800;28;20049;-79
2021/10/02 02:37:48;;;;;;;1.08;0.70;;;;;;;12.40;100.00;100977.19;6274046;28;20056;-79
2021/10/02 02:40:50;;;;;;;5.85;1.40;;;;;;;12.38;100.00;100969.34;6273954;28;20140;-79
2021/10/02 02:43:52;;;;;;;2.03;1.00;;;;;;;12.38;100.00;100979.03;6273909;28;20041;-80
2021/10/02 02:46:58;;;;;;;1.10;0.90;;;;;;;12.36;100.00;100980.91;6273679;28;20056;-79
2021/10/02 02:50:05;;;;;;;1.13;0.90;;;;;;;12.35;100.00;100966.91;6273822;28;20424;-79
2021/10/02 02:53:12;;;;;;;1.33;0.80;;;;;;;12.33;100.00;100968.75;6273479;28;20401;-80
2021/10/02 02:56:18;;;;;;;0.90;0.65;;;;;;;12.30;100.00;100960.16;6273597;28;20053;-79
2021/10/02 02:59:22;;;;;;;1.42;0.80;;;;;;;12.25;100.00;100968.34;6273483;28;20136;-79
2021/10/02 03:02:26;;;;;;;1.95;0.95;;;;;;;12.24;100.00;100965.78;6273888;28;20497;-79
2021/10/02 03:05:29;;;;;;;3.30;0.90;;;;;;;12.17;100.00;100970.53;6273261;28;20057;-80
2021/10/02 03:08:33;;;;;;;0.80;0.80;;;;;;;12.24;100.00;100965.78;6273502;28;20064;-78
2021/10/02 03:11:34;;;;;;;1.20;0.85;;;;;;;12.21;100.00;100961.53;6273627;28;20049;-79
2021/10/02 03:14:37;;;;;;;3.88;1.10;;;;;;;12.20;100.00;100957.22;6272924;28;20068;-79
2021/10/02 03:17:42;;;;;;;1.30;1.10;;;;;;;12.24;100.00;100964.00;6273556;28;20056;-79
2021/10/02 03:20:49;;;;;;;2.10;1.15;;;;;;;12.23;100.00;100950.94;6272989;28;20412;-80
2021/10/02 03:23:51;;;;;;;1.52;1.10;;;;;;;12.22;100.00;100959.75;6273099;28;20045;-79
2021/10/02 03:26:54;;;;;;;0.90;0.90;;;;;;;12.25;100.00;100954.31;6273055;28;20643;-80
2021/10/02 03:29:57;;;;;;;1.48;1.00;;;;;;;12.24;100.00;100952.63;6272803;28;20057;-80
2021/10/02 03:33:00;;;;;;;1.40;1.05;;;;;;;12.24;100.00;100958.75;6273249;28;20412;-80
2021/10/02 03:36:02;;;;;;;1.15;1.05;;;;;;;12.25;100.00;100952.53;6272917;28;20053;-80
2021/10/02 03:39:03;;;;;;;1.65;0.93;;;;;;;12.23;100.00;100949.13;6273208;28;20423;-80
2021/10/02 03:42:08;;;;;;;2.03;0.93;;;;;;;12.21;100.00;100952.78;6273089;28;20041;-80
2021/10/02 03:45:10;;;;;;;2.15;0.80;;;;;;;12.23;100.00;100954.41;6272530;28;20136;-79
2021/10/02 03:48:13;;;;;;;1.75;1.27;;;;;;;12.22;100.00;100947.44;6272785;28;20052;-80
2021/10/02 03:51:17;;;;;;;3.42;0.88;;;;;;;12.22;100.00;100951.84;6273192;28;20109;-80
2021/10/02 03:54:18;;;;;;;1.25;0.95;;;;;;;12.18;100.00;100953.81;6272446;28;20049;-80
2021/10/02 03:57:19;;;;;;;1.23;1.08;;;;;;;12.18;100.00;100959.09;6272873;28;20049;-80
2021/10/02 04:00:22;;;;;;;3.58;1.10;;;;;;;12.21;100.00;100960.69;6272421;28;20044;-80
2021/10/02 04:03:24;;;;;;;3.47;1.05;;;;;;;12.23;100.00;100953.56;6272264;28;20531;-80
2021/10/02 04:06:26;;;;;;;1.88;1.15;;;;;;;12.26;100.00;100953.38;6272573;28;20056;-80
2021/10/02 04:09:27;;;;;;;1.50;1.00;;;;;;;12.27;100.00;100963.00;6272835;28;20056;-80
2021/10/02 04:12:28;;;;;;;1.73;1.13;;;;;;;12.30;100.00;100954.91;6272334;28;20052;-80
2021/10/02 04:15:31;;;;;;;1.42;1.20;;;;;;;12.31;100.00;100948.69;6272443;28;20049;-80
2021/10/02 04:18:34;;;;;;;2.08;1.20;;;;;;;12.29;100.00;100947.94;6272708;28;20107;-80
2021/10/02 04:21:35;;;;;;;1.65;1.13;;;;;;;12.31;100.00;100948.69;6272434;28;20049;-80
2021/10/02 04:24:37;;;;;;;4.53;1.85;;;;;;;12.30;100.00;100949.63;6271933;28;20060;-80
2021/10/02 04:27:39;;;;;;;2.75;1.38;;;;;;;12.29;100.00;100943.50;6271275;28;20041;-79
2021/10/02 04:30:40;;;;;;;3.28;1.80;;;;;;;12.25;100.00;100946.41;6272272;28;20134;-78
2021/10/02 04:33:43;;;;;;;3.50;1.20;;;;;;;12.24;100.00;100945.56;6272310;28;20041;-78
2021/10/02 04:36:44;;;;;;;3.05;1.35;;;;;;;12.19;100.00;100943.19;6272256;28;20057;-79
2021/10/02 04:39:46;;;;;;;1.45;1.10;;;;;;;12.18;100.00;100941.50;6272092;28;20389;-78
2021/10/02 04:42:47;;;;;;;1.33;0.88;;;;;;;12.15;100.00;100948.72;6273844;28;20044;-78
2021/10/02 04:45:49;;;;;;;1.70;1.30;;;;;;;12.12;100.00;100948.88;6276885;28;20049;-78
2021/10/02 04:48:52;;;;;;;2.30;1.40;;;;;;;12.12;100.00;100954.16;6276975;28;20455;-79
2021/10/02 04:51:53;;;;;;;3.60;1.15;;;;;;;12.11;100.00;100948.03;6277031;28;20044;-78
2021/10/02 04:54:56;;;;;;;1.42;1.23;;;;;;;12.11;100.00;100960.38;6276628;28;20060;-78
2021/10/02 04:57:58;;;;;;;1.50;1.02;;;;;;;12.09;100.00;100960.47;6276058;28;20051;-79
2021/10/02 05:00:59;;;;;;;2.65;1.48;;;;;;;12.02;100.00;100958.25;6276198;28;20412;-79
2021/10/02 05:04:02;;;;;;;1.88;1.20;;;;;;;12.02;100.00;100952.97;6276613;28;20041;-79
2021/10/02 05:07:04;;;;;;;2.72;1.50;;;;;;;12.02;100.00;100966.16;6278244;28;20056;-78
2021/10/02 05:10:06;;;;;;;2.63;1.40;;;;;;;11.99;100.00;100959.28;6279666;28;20057;-78
2021/10/02 05:13:07;;;;;;;2.25;1.42;;;;;;;11.99;100.00;100956.66;6280942;28;20056;-80
2021/10/02 05:16:11;;;;;;;1.42;1.10;;;;;;;11.99;100.00;100950.50;6280591;28;20053;-79
2021/10/02 05:19:14;;;;;;;1.85;1.42;;;;;;;11.98;100.00;100947.03;6279878;28;20048;-79
2021/10/02 05:22:15;;;;;;;1.65;1.20;;;;;;;11.99;100.00;100939.97;6281157;28;20045;-78
2021/10/02 05:25:17;;;;;;;1.92;1.20;;;;;;;11.95;100.00;100941.09;6276382;28;20049;-78
2021/10/02 05:28:18;;;;;;;2.35;1.40;;;;;;;11.96;100.00;100941.00;6276468;28;20049;-79
2021/10/02 05:31:19;;;;;;;1.10;0.75;;;;;;;11.97;100.00;100936.59;6276333;28;20496;-79
2021/10/02 05:34:22;;;;;;;1.23;1.13;;;;;;;11.97;100.00;100950.59;6275760;28;20048;-78
2021/10/02 05:37:24;;;;;;;1.45;1.30;;;;;;;11.97;100.00;100950.59;6276283;28;20444;-79
2021/10/02 05:40:26;;;;;;;1.40;1.10;;;;;;;11.98;100.00;100948.81;6275955;28;20122;-79
2021/10/02 05:43:27;;;;;;;3.13;1.10;;;;;;;12.01;100.00;100953.91;6275701;28;20059;-79
2021/10/02 05:46:29;;;;;;;1.27;1.17;;;;;;;12.02;100.00;100960.88;6275581;28;20056;-79
2021/10/02 05:49:32;;;;;;;2.67;1.17;;;;;;;12.03;100.00;100965.22;6275796;28;20063;-80
2021/10/02 05:52:33;;;;;;;1.77;1.05;;;;;;;12.00;100.00;100963.59;6275178;28;20067;-79
2021/10/02 05:55:34;;;;;;;1.42;1.15;;;;;;;12.02;100.00;100963.50;6275623;28;20492;-79
2021/10/02 05:58:36;;;;;;;2.42;1.40;;;;;;;12.06;100.00;100973.78;6275478;28;20064;-78
2021/10/02 06:01:37;;;;;;;3.22;1.27;;;;;;;12.04;100.00;100980.09;6275673;28;20520;-79
2021/10/02 06:04:40;;;;;;;2.13;1.38;;;;;;;12.01;100.00;100975.84;6275217;28;20484;-79
2021/10/02 06:07:41;;;;;;;2.88;1.08;;;;;;;12.04;100.00;100975.69;6275390;28;20518;-79
2021/10/02 06:10:42;;;;;;;2.08;1.00;;;;;;;12.16;100.00;100982.03;6275365;28;20056;-79
2021/10/02 06:13:44;;;;;;;0.85;0.80;;;;;;;12.11;100.00;100989.34;6274950;28;20045;-78
2021/10/02 06:16:45;;;;;;;0.98;0.85;;;;;;;12.10;100.00;100991.13;6275306;28;20416;-78
2021/10/02 06:19:48;;;;;;;2.15;1.50;;;;;;;12.12;100.00;100983.97;6275239;28;20412;-79
2021/10/02 06:22:49;;;;;;;2.88;1.00;;;;;;;12.11;100.00;100984.06;6275001;28;20049;-79
2021/10/02 06:25:50;;;;;;;1.52;1.05;;;;;;;12.11;100.00;100990.19;6274530;28;20052;-79
2021/10/02 06:28:52;;;;;;;1.42;1.20;;;;;;;12.12;100.00;100991.88;6274819;28;20134;-80
2021/10/02 06:31:53;;;;;;;1.50;1.20;;;;;;;12.11;100.00;100992.81;6274925;28;20053;-80
2021/10/02 06:34:56;;;;;;;1.75;1.02;;;;;;;12.11;100.00;100998.09;6274581;28;20045;-79
2021/10/02 06:37:58;;;;;;;1.10;1.00;;;;;;;12.12;100.00;100996.31;6274540;28;20050;-79
2021/10/02 06:40:59;;;;;;;2.30;1.42;;;;;;;12.12;100.00;101007.69;6274596;28;20550;-78
2021/10/02 06:44:01;;;;;;;1.52;1.08;;;;;;;12.11;100.00;101000.72;6274375;28;20045;-78
2021/10/02 06:47:03;;;;;;;3.75;1.33;;;;;;;12.10;100.00;100998.19;6274528;28;20053;-79
2021/10/02 06:50:06;;;;;;;1.88;1.20;;;;;;;12.08;100.00;101003.56;6274316;28;20059;-79
2021/10/02 06:53:08;;;;;;;1.05;0.95;;;;;;;12.08;100.00;101010.56;6274091;28;20391;-78
2021/10/02 06:56:09;;;;;;;2.28;1.40;;;;;;;12.09;100.00;101013.16;6274443;28;20052;-79
2021/10/02 06:59:10;;;;;;;2.42;1.27;;;;;;;12.11;100.00;101015.69;6273825;28;20146;-79
2021/10/02 07:02:12;;;;;;;1.38;1.10;;;;;;;12.14;100.00;100997.94;6274477;28;20048;-79
2021/10/02 07:05:16;;;;;;;1.58;1.25;;;;;;;12.19;100.00;100993.25;6272840;28;20056;-79
2021/10/02 07:08:17;;;;;;;1.83;1.13;;;;;;;12.26;100.00;101009.56;6273765;28;20053;-79
2021/10/02 07:11:19;;;;;;;3.45;1.38;;;;;;;12.30;100.00;101003.19;6273772;28;20045;-79
2021/10/02 07:14:20;;;;;;;2.78;1.35;;;;;;;12.35;100.00;101002.91;6273418;28;20045;-79
2021/10/02 07:17:21;;;;;;;1.15;1.00;;;;;;;12.36;100.00;100988.81;6273399;28;20397;-79
2021/10/02 07:20:25;;;;;;;2.72;1.30;;;;;;;12.40;100.00;100991.19;6273124;28;20404;-80
2021/10/02 07:23:29;;;;;;;3.05;1.73;;;;;;;12.48;100.00;100984.63;6273209;28;20048;-79
2021/10/02 07:26:30;;;;;;;1.98;1.25;;;;;;;12.51;100.00;100981.81;6272253;28;20128;-78
2021/10/02 07:29:32;;;;;;;3.22;1.73;;;;;;;12.57;100.00;100978.81;6273301;28;20060;-78
2021/10/02 07:32:34;;;;;;;2.60;1.38;;;;;;;12.65;100.00;100972.16;6270373;28;20041;-79
2021/10/02 07:35:37;;;;;;;3.28;1.40;;;;;;;12.75;100.00;100963.72;6263427;28;20040;-79
2021/10/02 07:38:38;;;;;;;3.67;1.55;;;;;;;12.79;100.00;100957.31;6273165;28;20049;-79
2021/10/02 07:41:41;;;;;;;4.88;1.88;;;;;;;12.78;100.00;100968.81;6272976;28;20045;-79
2021/10/02 07:44:44;;;;;;;2.15;1.50;;;;;;;12.81;100.00;100984.44;6273347;28;20049;-79
2021/10/02 07:47:46;;;;;;;3.47;1.40;;;;;;;12.79;100.00;100984.53;6272391;28;20466;-79
2021/10/02 07:50:49;;;;;;;3.10;1.65;;;;;;;12.76;100.00;100984.72;6273016;28;20052;-79
2021/10/02 07:53:52;;;;;;;3.38;1.52;;;;;;;12.78;100.00;100977.56;6274968;28;20435;-79
2021/10/02 07:56:54;;;;;;;2.70;1.80;;;;;;;12.76;100.00;100966.25;6286274;28;20073;-77
2021/10/02 07:59:56;;;;;;;3.38;1.70;;;;;;;12.74;100.00;100962.03;6284300;28;20044;-78
2021/10/02 08:02:58;;;;;;;4.45;2.30;;;;;;;12.72;100.00;100966.53;6283264;28;20041;-78
2021/10/02 08:06:01;;;;;;;2.65;1.42;;;;;;;12.79;100.00;100959.97;6279704;28;20048;-78
2021/10/02 08:09:03;;;;;;;3.55;2.30;;;;;;;12.95;100.00;100956.31;6284011;28;20522;-78
2021/10/02 08:12:04;;;;;;;3.28;2.28;;;;;;;13.08;100.00;100960.84;6285298;28;20504;-79
2021/10/02 08:15:08;;;;;;;4.45;2.17;;;;;;;13.21;100.00;100970.56;6282577;28;20045;-79
2021/10/02 08:18:12;;;;;;;5.18;2.63;;;;;;;13.28;100.00;100970.25;6283357;28;20045;-79
2021/10/02 08:21:15;;;;;;;4.80;1.98;;;;;;;13.30;100.00;100976.25;6274946;28;20044;-78
2021/10/02 08:24:19;;;;;;;3.42;2.13;;;;;;;13.29;100.00;100980.69;6285850;28;20045;-79
2021/10/02 08:27:21;;;;;;;5.47;2.40;;;;;;;13.25;100.00;100980.97;6285393;28;20044;-79
2021/10/02 08:30:23;;;;;;;3.90;2.38;;;;;;;13.28;100.00;100976.38;6285700;28;20455;-78
2021/10/02 08:33:24;;;;;;;3.10;1.75;;;;;;;13.37;100.00;100981.09;6288336;28;20041;-78
2021/10/02 08:36:27;;;;;;;3.47;2.30;;;;;;;13.39;100.00;100976.53;6283095;28;20428;-78
2021/10/02 08:39:28;;;;;;;2.22;1.80;;;;;;;13.46;100.00;100979.69;6287738;28;20049;-78
2021/10/02 08:42:29;;;;;;;3.63;2.17;;;;;;;13.53;100.00;100975.69;6283781;28;20053;-79
2021/10/02 08:45:32;;;;;;;4.88;2.22;;;;;;;13.63;100.00;100963.63;6290374;28;20041;-80
2021/10/02 08:48:34;;;;;;;5.07;2.05;;;;;;;13.71;100.00;100957.84;6283451;28;20045;-80
2021/10/02 08:51:38;;;;;;;1.95;1.63;;;;;;;13.78;100.00;100955.69;6279488;28;20045;-78
2021/10/02 08:54:42;;;;;;;1.48;1.30;;;;;;;13.81;100.00;100960.78;6282600;28;20049;-78
2021/10/02 08:57:45;;;;;;;2.45;1.70;;;;;;;13.82;100.00;100963.31;6281101;28;20049;-78
2021/10/02 09:00:46;;;;;;;2.40;1.73;;;;;;;13.78;100.00;100963.63;6283644;28;20099;-78
2021/10/02 09:03:47;;;;;;;1.75;1.63;;;;;;;13.79;100.00;100954.72;6286899;28;20052;-77
2021/10/02 09:06:50;;;;;;;3.15;1.75;;;;;;;13.81;100.00;100956.34;6286488;28;20049;-78
2021/10/02 09:09:54;;;;;;;2.22;1.63;;;;;;;13.83;100.00;100951.81;6286590;28;20060;-78
2021/10/02 09:12:55;;;;;;;3.35;1.38;;;;;;;13.88;100.00;100952.34;6273869;28;20459;-77
2021/10/02 09:15:57;;;;;;;2.40;1.75;;;;;;;13.83;100.00;100950.97;6272741;28;20053;-79
2021/10/02 09:18:59;;;;;;;2.20;1.75;;;;;;;13.77;100.00;100943.44;6273310;28;20045;-78
2021/10/02 09:22:05;;;;;;;2.28;1.48;;;;;;;13.74;100.00;100947.09;6272977;28;20055;-78
2021/10/02 09:25:10;;;;;;;2.80;1.67;;;;;;;13.68;100.00;100945.72;6273585;28;20053;-78
2021/10/02 09:28:13;;;;;;;2.58;1.55;;;;;;;13.66;100.00;100938.81;6274620;28;20053;-78
2021/10/02 09:31:16;;;;;;;2.45;1.35;;;;;;;13.66;100.00;100944.94;6278148;28;20056;-77
2021/10/02 09:34:22;;;;;;;2.40;1.42;;;;;;;13.70;100.00;100949.09;6278099;28;20049;-77
2021/10/02 09:37:29;;;;;;;1.85;1.52;;;;;;;13.67;100.00;100949.31;6278407;28;20049;-78
2021/10/02 09:40:32;;;;;;;1.95;1.40;;;;;;;13.61;100.00;100947.03;6278460;28;20049;-78
2021/10/02 09:43:33;;;;;;;1.70;1.20;;;;;;;13.62;100.00;100947.88;6277881;28;20044;-78
2021/10/02 09:46:36;;;;;;;1.10;1.00;;;;;;;13.58;100.00;100939.31;6278736;28;20411;-78
2021/10/02 09:49:42;;;;;;;0.90;0.90;;;;;;;13.56;100.00;100938.53;6278112;28;20393;-78
2021/10/02 09:52:47;;;;;;;2.22;1.10;;;;;;;13.57;100.00;100947.31;6279469;28;20104;-78
2021/10/02 09:55:50;;;;;;;1.30;1.00;;;;;;;13.52;100.00;100931.75;6280111;28;20041;-78
2021/10/02 09:58:52;;;;;;;1.65;1.13;;;;;;;13.53;100.00;100936.09;6279342;28;20052;-79
2021/10/02 10:02:11;;;;;;;1.95;1.00;;;;;;;13.51;100.00;100940.63;6280169;28;20136;-78
2021/10/02 10:05:15;;;;;;;1.58;1.20;;;;;;;13.53;100.00;100941.38;6278815;28;20045;-78
2021/10/02 10:08:26;;;;;;;2.33;1.20;;;;;;;13.55;100.00;100938.66;6278557;28;20049;-78
2021/10/02 10:11:40;;;;;;;1.17;1.08;;;;;;;13.53;100.00;100941.38;6274843;28;20045;-77
2021/10/02 10:14:42;;;;;;;2.33;1.55;;;;;;;13.51;100.00;100938.00;6276036;28;20048;-77
2021/10/02 10:17:48;;;;;;;1.25;1.02;;;;;;;13.55;100.00;100936.00;6274254;28;20060;-77
2021/10/02 10:20:52;;;;;;;1.52;1.33;;;;;;;13.58;100.00;100927.88;6275912;28;20416;-77
2021/10/02 10:23:54;;;;;;;2.35;1.08;;;;;;;13.70;100.00;100932.41;6274897;28;20045;-78
2021/10/02 10:26:56;;;;;;;4.43;1.48;;;;;;;13.79;100.00;100926.53;6278789;28;20053;-78
2021/10/02 10:30:06;;;;;;;1.92;1.13;;;;;;;13.88;100.00;100938.31;6278463;28;20045;-78
2021/10/02 10:33:10;;;;;;;1.60;1.02;;;;;;;13.90;100.00;100923.22;6271592;28;20049;-78
2021/10/02 10:36:13;;;;;;;1.88;1.45;;;;;;;13.95;100.00;100927.25;6279022;28;20073;-78
2021/10/02 10:39:17;;;;;;;1.17;1.00;;;;;;;13.93;100.00;100923.84;6278680;28;20056;-78
2021/10/02 10:42:18;;;;;;;1.60;1.20;;;;;;;13.92;100.00;100929.22;6275584;28;20056;-78
2021/10/02 10:45:20;;;;;;;1.15;0.88;;;;;;;13.90;100.00;100920.56;6274365;28;20048;-80
2021/10/02 10:48:21;;;;;;;2.10;1.35;;;;;;;13.89;100.00;100918.84;6279179;28;20064;-78
2021/10/02 10:51:28;;;;;;;1.48;0.85;;;;;;;13.90;100.00;100917.94;6275705;28;20053;-78
2021/10/02 10:54:32;;;;;;;0.95;0.95;;;;;;;13.98;100.00;100917.41;6274201;28;20048;-80
2021/10/02 10:57:38;;;;;;;1.73;1.13;;;;;;;13.98;100.00;100888.34;6277796;28;20049;-80
2021/10/02 11:00:42;;;;;;;1.83;0.90;;;;;;;14.10;100.00;100884.91;6277432;28;20052;-80
2021/10/02 11:03:45;;;;;;;1.45;1.00;;;;;;;14.30;100.00;100878.28;6273368;28;20159;-80
2021/10/02 11:06:50;;;;;;;1.13;0.90;;;;;;;14.35;100.00;100882.34;6274457;28;20049;-80
2021/10/02 11:09:53;;;;;;;3.65;1.10;;;;;;;14.45;100.00;100883.41;6278247;28;20191;-79
2021/10/02 11:12:54;;;;;;;2.83;0.80;;;;;;;14.39;100.00;100891.75;6274092;28;20049;-79
2021/10/02 11:15:56;;;;;;;0.98;0.70;;;;;;;14.41;100.00;100884.56;6272971;28;20478;-79
2021/10/02 11:18:58;;;;;;;3.45;0.73;;;;;;;14.45;100.00;100890.50;6273760;28;20056;-79
2021/10/02 11:22:10;;;;;;;3.55;0.57;;;;;;;14.54;100.00;100886.44;6274501;28;20415;-79
2021/10/02 11:25:18;;;;;;;0.88;0.75;;;;;;;14.58;100.00;100878.19;6274144;28;20045;-79
2021/10/02 11:28:31;;;;;;;1.05;0.88;;;;;;;14.59;100.00;100876.38;6281889;28;20056;-79
2021/10/02 11:31:34;;;;;;;0.82;0.50;;;;;;;14.66;100.00;100873.19;6281723;28;20064;-79
2021/10/02 11:34:35;;;;;;;2.35;0.90;;;;;;;14.63;100.00;100868.13;6281674;28;20056;-80
2021/10/02 11:37:43;;;;;;;1.52;1.17;;;;;;;14.74;100.00;100871.84;6282752;28;20052;-80
2021/10/02 11:40:47;;;;;;;0.70;0.50;;;;;;;14.92;100.00;100876.69;6282522;28;20531;-79
2021/10/02 11:43:54;;;;;;;3.72;0.90;;;;;;;14.95;100.00;100863.25;6284029;28;20045;-79
2021/10/02 11:47:27;;;;;;;1.02;0.80;;;;;;;14.88;100.00;100858.50;6284273;28;20076;-79
2021/10/02 11:50:32;;;;;;;0.85;0.60;;;;;;;14.82;100.00;100848.34;6284593;28;20049;-80
2021/10/02 11:53:42;;;;;;;1.65;1.17;;;;;;;14.88;100.00;100847.91;6280418;28;20408;-83
2021/10/02 11:56:45;;;;;;;1.30;0.90;;;;;;;14.93;100.00;100840.50;6275272;28;20113;-78
2021/10/02 11:59:48;;;;;;;1.77;1.00;;;;;;;14.98;100.00;100838.38;6276652;28;20116;-78
2021/10/02 12:02:53;;;;;;;2.08;0.93;;;;;;;15.03;100.00;100832.75;6283840;28;20045;-76
2021/10/02 12:05:56;;;;;;;0.85;0.70;;;;;;;15.16;100.00;100831.78;6272042;28;20044;-77
2021/10/02 12:08:58;;;;;;;1.23;0.77;;;;;;;15.17;100.00;100838.78;6272528;28;20049;-77
2021/10/02 12:12:02;;;;;;;1.40;0.90;;;;;;;15.15;100.00;100843.31;6277573;28;20049;-78
2021/10/02 12:15:04;;;;;;;1.08;0.80;;;;;;;15.06;100.00;100843.13;6277128;28;20052;-78
2021/10/02 12:18:06;;;;;;;0.68;0.68;;;;;;;15.01;100.00;100839.97;6279874;28;20053;-78
2021/10/02 12:21:07;;;;;;;0.63;0.60;;;;;;;15.12;100.00;100832.94;6282327;28;20420;-78
2021/10/02 12:24:20;;;;;;;1.05;0.70;;;;;;;15.16;100.00;100821.19;6276780;28;20052;-78
2021/10/02 12:27:29;;;;;;;0.30;0.30;;;;;;;15.22;100.00;100815.47;6275451;28;20423;-79
2021/10/02 12:30:30;;;;;;;1.27;0.73;;;;;;;15.33;100.00;100809.38;6282634;28;20041;-78
2021/10/02 12:33:32;;;;;;;0.60;0.60;;;;;;;15.52;100.00;100806.25;6276460;28;20436;-79
2021/10/02 12:36:43;;;;;;;0.65;0.60;;;;;;;15.90;100.00;100795.50;6276618;28;20535;-78
2021/10/02 12:39:47;;;;;;;0.85;0.35;;;;;;;16.20;100.00;100783.53;6277318;28;20132;-78
2021/10/02 12:42:53;;;;;;;4.78;1.02;;;;;;;16.56;95.32;100771.91;6274400;28;20045;-79
2021/10/02 12:45:55;;;;;;;1.15;0.82;;;;;;;16.69;95.94;100772.63;6275348;28;20048;-78
2021/10/02 12:48:56;;;;;;;0.47;0.43;;;;;;;16.88;95.39;100777.34;6279586;28;20053;-78
2021/10/02 12:52:01;;;;;;;1.35;0.47;;;;;;;16.97;92.48;100773.97;6278516;28;20064;-81
2021/10/02 12:55:10;;;;;;;1.20;0.73;;;;;;;16.71;92.24;100772.50;6273119;28;20052;-78
2021/10/02 12:58:17;;;;;;;2.40;0.60;;;;;;;16.32;93.23;100765.84;6271389;28;20044;-79
2021/10/02 13:01:18;;;;;;;0.63;0.50;;;;;;;16.07;95.76;100762.41;6271554;28;20045;-79
2021/10/02 13:04:20;;;;;;;0.82;0.50;;;;;;;15.90;100.00;100750.44;6273950;28;20088;-78
2021/10/02 13:07:26;;;;;;;1.17;0.75;;;;;;;15.81;100.00;100752.97;6276529;28;20199;-78
2021/10/02 13:10:37;;;;;;;0.45;0.45;;;;;;;15.69;100.00;100739.66;6276524;28;20052;-78
2021/10/02 13:13:40;;;;;;;1.27;0.55;;;;;;;15.69;100.00;100730.88;6273979;28;20053;-78
2021/10/02 13:16:42;;;;;;;0.85;0.60;;;;;;;15.67;100.00;100725.69;6275801;28;20049;-78
2021/10/02 13:19:43;;;;;;;0.93;0.60;;;;;;;15.79;100.00;100726.56;6276146;28;20041;-78
2021/10/02 13:22:47;;;;;;;1.17;0.60;;;;;;;16.22;98.67;100707.38;6275553;28;20083;-78
2021/10/02 13:25:53;;;;;;;0.52;0.40;;;;;;;16.69;98.61;100702.78;6272174;28;20480;-78
2021/10/02 13:28:56;;;;;;;0.75;0.55;;;;;;;17.13;94.26;100691.28;6277888;28;20053;-79
2021/10/02 13:32:13;;;;;;;3.40;0.50;;;;;;;17.02;89.36;100683.31;6277295;28;20049;-81
2021/10/02 13:35:14;;;;;;;0.40;0.40;;;;;;;16.85;94.60;100686.50;6271874;28;20052;-79
2021/10/02 13:38:16;;;;;;;0.77;0.50;;;;;;;16.69;93.23;100685.06;6277158;28;20060;-79
2021/10/02 13:41:17;;;;;;;1.00;0.63;;;;;;;16.64;95.10;100683.75;6278046;28;20055;-79
2021/10/02 13:44:28;;;;;;;0.82;0.40;;;;;;;16.78;91.26;100670.25;6277030;28;20052;-79
2021/10/02 13:47:29;;;;;;;0.40;0.40;;;;;;;16.97;92.01;100669.59;6294989;22;20496;-80
2021/10/02 13:50:31;;;;;;;1.77;0.45;;;;;;;16.89;93.20;100672.00;6299381;28;20049;-81
2021/10/02 13:53:33;;;;;;;0.75;0.40;;;;;;;16.69;94.49;100665.63;6299783;28;20045;-79
2021/10/02 13:56:36;;;;;;;0.80;0.40;;;;;;;16.49;96.13;100659.28;6300007;28;20492;-81
2021/10/02 13:59:39;;;;;;;0.50;0.30;;;;;;;16.33;96.75;100659.63;6300098;28;20067;-80
2021/10/02 14:02:41;;;;;;;0.57;0.57;;;;;;;16.14;96.67;100662.91;6299829;28;20080;-80
2021/10/02 14:05:42;;;;;;;1.15;0.70;;;;;;;16.06;97.66;100662.63;6299454;28;20131;-80
2021/10/02 14:08:44;;;;;;;0.40;0.40;;;;;;;15.93;97.39;100657.44;6299510;28;20052;-80
2021/10/02 14:11:45;;;;;;;3.20;0.60;;;;;;;15.87;98.05;100651.78;6299646;28;20060;-80
2021/10/02 14:14:48;;;;;;;1.05;0.68;;;;;;;15.79;100.00;100652.34;6298771;28;20052;-80
2021/10/02 14:17:49;;;;;;;0.70;0.60;;;;;;;15.63;98.54;100642.06;6299640;28;20052;-80
2021/10/02 14:20:50;;;;;;;0.55;0.55;;;;;;;15.58;99.72;100640.72;6299556;28;20488;-80
2021/10/02 14:23:52;;;;;;;0.47;0.47;;;;;;;15.52;100.00;100635.88;6299219;28;20044;-81
2021/10/02 14:26:53;;;;;;;0.50;0.50;;;;;;;15.51;100.00;100629.75;6299602;28;20048;-80
2021/10/02 14:29:56;;;;;;;0.55;0.55;;;;;;;15.45;100.00;100622.28;6299175;28;20048;-79
2021/10/02 14:32:57;;;;;;;0.73;0.60;;;;;;;15.43;100.00;100610.94;6299407;28;20049;-80
2021/10/02 14:35:59;;;;;;;0.63;0.60;;;;;;;15.43;100.00;100611.78;6301120;28;20064;-80
2021/10/02 14:39:00;;;;;;;0.65;0.50;;;;;;;15.47;100.00;100607.09;6303976;28;20051;-80
2021/10/02 14:42:02;;;;;;;0.63;0.63;;;;;;;15.48;100.00;100598.19;6301975;28;20049;-79
2021/10/02 14:45:07;;;;;;;0.50;0.50;;;;;;;15.46;100.00;100592.19;6298805;28;20041;-80
2021/10/02 14:48:10;;;;;;;0.80;0.70;;;;;;;15.45;100.00;100585.19;6298593;28;20048;-80